sensor_id;sensor_type;location;lat;lon;timestamp;P1;durP1;ratioP1;P2;durP2;ratioP2
15905;SDS011;8051;50.820;4.884;2024-01-30T00:02:04;24.50;;;22.57;;
15905;SDS011;8051;50.820;4.884;2024-01-30T00:04:32;25.07;;;22.77;;
15905;SDS011;8051;50.820;4.884;2024-01-30T00:06:59;23.43;;;21.73;;
15905;SDS011;8051;50.820;4.884;2024-01-30T00:09:29;25.07;;;23.13;;
15905;SDS011;8051;50.820;4.884;2024-01-30T00:11:56;23.73;;;21.83;;
15905;SDS011;8051;50.820;4.884;2024-01-30T00:14:24;24.40;;;22.40;;
15905;SDS011;8051;50.820;4.884;2024-01-30T00:16:52;24.07;;;22.03;;
15905;SDS011;8051;50.820;4.884;2024-01-30T00:19:20;24.60;;;22.67;;
15905;SDS011;8051;50.820;4.884;2024-01-30T00:21:47;24.33;;;22.33;;
15905;SDS011;8051;50.820;4.884;2024-01-30T00:24:15;23.90;;;22.10;;
15905;SDS011;8051;50.820;4.884;2024-01-30T00:26:45;23.83;;;22.03;;
15905;SDS011;8051;50.820;4.884;2024-01-30T00:29:13;24.47;;;22.47;;
15905;SDS011;8051;50.820;4.884;2024-01-30T00:31:44;25.30;;;23.20;;
15905;SDS011;8051;50.820;4.884;2024-01-30T00:34:12;24.43;;;22.47;;
15905;SDS011;8051;50.820;4.884;2024-01-30T00:36:40;24.77;;;22.73;;
15905;SDS011;8051;50.820;4.884;2024-01-30T00:39:08;24.93;;;23.13;;
15905;SDS011;8051;50.820;4.884;2024-01-30T00:41:35;27.07;;;24.87;;
15905;SDS011;8051;50.820;4.884;2024-01-30T00:44:04;26.83;;;24.53;;
15905;SDS011;8051;50.820;4.884;2024-01-30T00:46:32;26.60;;;24.43;;
15905;SDS011;8051;50.820;4.884;2024-01-30T00:49:00;26.33;;;24.33;;
15905;SDS011;8051;50.820;4.884;2024-01-30T00:51:27;26.87;;;24.60;;
15905;SDS011;8051;50.820;4.884;2024-01-30T00:53:56;27.13;;;24.93;;
15905;SDS011;8051;50.820;4.884;2024-01-30T00:56:23;27.73;;;25.03;;
15905;SDS011;8051;50.820;4.884;2024-01-30T00:58:51;25.43;;;23.40;;
15905;SDS011;8051;50.820;4.884;2024-01-30T01:01:20;25.77;;;23.80;;
15905;SDS011;8051;50.820;4.884;2024-01-30T01:03:48;26.50;;;24.33;;
15905;SDS011;8051;50.820;4.884;2024-01-30T01:06:15;26.70;;;24.43;;
15905;SDS011;8051;50.820;4.884;2024-01-30T01:08:43;27.03;;;24.53;;
15905;SDS011;8051;50.820;4.884;2024-01-30T01:11:10;24.43;;;22.60;;
15905;SDS011;8051;50.820;4.884;2024-01-30T01:13:38;24.87;;;22.83;;
15905;SDS011;8051;50.820;4.884;2024-01-30T01:16:06;25.77;;;23.87;;
15905;SDS011;8051;50.820;4.884;2024-01-30T01:18:35;25.10;;;23.17;;
15905;SDS011;8051;50.820;4.884;2024-01-30T01:21:03;24.77;;;22.73;;
15905;SDS011;8051;50.820;4.884;2024-01-30T01:23:31;25.20;;;22.80;;
15905;SDS011;8051;50.820;4.884;2024-01-30T01:25:58;24.67;;;22.70;;
15905;SDS011;8051;50.820;4.884;2024-01-30T01:28:26;24.80;;;22.90;;
15905;SDS011;8051;50.820;4.884;2024-01-30T01:30:54;25.53;;;23.53;;
15905;SDS011;8051;50.820;4.884;2024-01-30T01:33:30;25.93;;;23.37;;
15905;SDS011;8051;50.820;4.884;2024-01-30T01:36:00;24.63;;;22.73;;
15905;SDS011;8051;50.820;4.884;2024-01-30T01:38:28;27.07;;;24.77;;
15905;SDS011;8051;50.820;4.884;2024-01-30T01:40:55;25.77;;;23.40;;
15905;SDS011;8051;50.820;4.884;2024-01-30T01:43:23;25.83;;;23.73;;
15905;SDS011;8051;50.820;4.884;2024-01-30T01:45:51;25.30;;;23.50;;
15905;SDS011;8051;50.820;4.884;2024-01-30T01:48:18;26.20;;;24.10;;
15905;SDS011;8051;50.820;4.884;2024-01-30T01:50:47;26.23;;;24.23;;
15905;SDS011;8051;50.820;4.884;2024-01-30T01:53:16;26.03;;;24.03;;
15905;SDS011;8051;50.820;4.884;2024-01-30T01:55:45;26.53;;;24.03;;
15905;SDS011;8051;50.820;4.884;2024-01-30T01:58:13;26.43;;;24.37;;
15905;SDS011;8051;50.820;4.884;2024-01-30T02:00:41;25.77;;;23.67;;
15905;SDS011;8051;50.820;4.884;2024-01-30T02:03:09;26.93;;;24.43;;
15905;SDS011;8051;50.820;4.884;2024-01-30T02:05:38;25.87;;;23.77;;
15905;SDS011;8051;50.820;4.884;2024-01-30T02:08:07;25.67;;;23.60;;
15905;SDS011;8051;50.820;4.884;2024-01-30T02:10:37;26.80;;;24.70;;
15905;SDS011;8051;50.820;4.884;2024-01-30T02:13:04;26.67;;;24.30;;
15905;SDS011;8051;50.820;4.884;2024-01-30T02:15:32;26.53;;;24.37;;
15905;SDS011;8051;50.820;4.884;2024-01-30T02:17:59;27.30;;;24.97;;
15905;SDS011;8051;50.820;4.884;2024-01-30T02:20:27;25.83;;;23.93;;
15905;SDS011;8051;50.820;4.884;2024-01-30T02:23:00;26.30;;;24.13;;
15905;SDS011;8051;50.820;4.884;2024-01-30T02:25:32;26.13;;;24.13;;
15905;SDS011;8051;50.820;4.884;2024-01-30T02:28:00;25.80;;;23.70;;
15905;SDS011;8051;50.820;4.884;2024-01-30T02:30:27;27.50;;;25.10;;
15905;SDS011;8051;50.820;4.884;2024-01-30T02:32:55;26.50;;;24.40;;
15905;SDS011;8051;50.820;4.884;2024-01-30T02:35:22;27.30;;;24.80;;
15905;SDS011;8051;50.820;4.884;2024-01-30T02:37:49;26.53;;;24.33;;
15905;SDS011;8051;50.820;4.884;2024-01-30T02:40:18;25.73;;;23.77;;
15905;SDS011;8051;50.820;4.884;2024-01-30T02:42:46;26.67;;;24.47;;
15905;SDS011;8051;50.820;4.884;2024-01-30T02:45:13;28.70;;;25.73;;
15905;SDS011;8051;50.820;4.884;2024-01-30T02:47:41;26.60;;;24.23;;
15905;SDS011;8051;50.820;4.884;2024-01-30T02:50:09;26.73;;;24.43;;
15905;SDS011;8051;50.820;4.884;2024-01-30T02:52:36;25.90;;;23.83;;
15905;SDS011;8051;50.820;4.884;2024-01-30T02:55:04;25.00;;;23.10;;
15905;SDS011;8051;50.820;4.884;2024-01-30T02:57:33;26.50;;;24.30;;
15905;SDS011;8051;50.820;4.884;2024-01-30T03:00:01;24.53;;;22.53;;
15905;SDS011;8051;50.820;4.884;2024-01-30T03:02:31;24.97;;;23.07;;
15905;SDS011;8051;50.820;4.884;2024-01-30T03:04:59;24.90;;;22.93;;
15905;SDS011;8051;50.820;4.884;2024-01-30T03:07:26;25.03;;;22.90;;
15905;SDS011;8051;50.820;4.884;2024-01-30T03:09:54;25.97;;;23.87;;
15905;SDS011;8051;50.820;4.884;2024-01-30T03:12:21;25.40;;;23.43;;
15905;SDS011;8051;50.820;4.884;2024-01-30T03:14:50;25.77;;;23.43;;
15905;SDS011;8051;50.820;4.884;2024-01-30T03:17:18;24.70;;;22.83;;
15905;SDS011;8051;50.820;4.884;2024-01-30T03:19:45;24.90;;;22.97;;
15905;SDS011;8051;50.820;4.884;2024-01-30T03:22:13;24.57;;;22.67;;
15905;SDS011;8051;50.820;4.884;2024-01-30T03:24:40;24.20;;;22.47;;
15905;SDS011;8051;50.820;4.884;2024-01-30T03:27:08;26.33;;;24.33;;
15905;SDS011;8051;50.820;4.884;2024-01-30T03:29:35;25.10;;;23.20;;
15905;SDS011;8051;50.820;4.884;2024-01-30T03:32:04;25.73;;;23.53;;
15905;SDS011;8051;50.820;4.884;2024-01-30T03:34:32;26.27;;;23.93;;
15905;SDS011;8051;50.820;4.884;2024-01-30T03:36:59;25.13;;;23.23;;
15905;SDS011;8051;50.820;4.884;2024-01-30T03:39:27;25.47;;;23.47;;
15905;SDS011;8051;50.820;4.884;2024-01-30T03:41:54;26.40;;;24.23;;
15905;SDS011;8051;50.820;4.884;2024-01-30T03:44:21;25.10;;;23.00;;
15905;SDS011;8051;50.820;4.884;2024-01-30T03:46:49;26.03;;;23.77;;
15905;SDS011;8051;50.820;4.884;2024-01-30T03:49:18;25.03;;;23.03;;
15905;SDS011;8051;50.820;4.884;2024-01-30T03:51:45;25.30;;;23.30;;
15905;SDS011;8051;50.820;4.884;2024-01-30T03:54:13;24.37;;;22.60;;
15905;SDS011;8051;50.820;4.884;2024-01-30T03:56:40;26.13;;;24.03;;
15905;SDS011;8051;50.820;4.884;2024-01-30T03:59:08;25.03;;;23.00;;
15905;SDS011;8051;50.820;4.884;2024-01-30T04:01:35;25.87;;;23.87;;
15905;SDS011;8051;50.820;4.884;2024-01-30T04:04:03;26.33;;;24.03;;
15905;SDS011;8051;50.820;4.884;2024-01-30T04:06:32;25.93;;;23.83;;
15905;SDS011;8051;50.820;4.884;2024-01-30T04:08:59;26.33;;;24.10;;
15905;SDS011;8051;50.820;4.884;2024-01-30T04:11:26;26.33;;;24.33;;
15905;SDS011;8051;50.820;4.884;2024-01-30T04:13:54;27.97;;;25.67;;
15905;SDS011;8051;50.820;4.884;2024-01-30T04:16:21;27.77;;;25.27;;
15905;SDS011;8051;50.820;4.884;2024-01-30T04:18:49;26.77;;;24.67;;
15905;SDS011;8051;50.820;4.884;2024-01-30T04:21:17;27.53;;;25.33;;
15905;SDS011;8051;50.820;4.884;2024-01-30T04:23:48;26.90;;;25.00;;
15905;SDS011;8051;50.820;4.884;2024-01-30T04:26:15;26.97;;;24.97;;
15905;SDS011;8051;50.820;4.884;2024-01-30T04:28:43;27.57;;;25.30;;
15905;SDS011;8051;50.820;4.884;2024-01-30T04:31:11;29.00;;;26.40;;
15905;SDS011;8051;50.820;4.884;2024-01-30T04:33:39;27.63;;;25.63;;
15905;SDS011;8051;50.820;4.884;2024-01-30T04:36:08;29.13;;;26.53;;
15905;SDS011;8051;50.820;4.884;2024-01-30T04:38:36;27.47;;;25.27;;
15905;SDS011;8051;50.820;4.884;2024-01-30T04:41:05;27.10;;;24.83;;
15905;SDS011;8051;50.820;4.884;2024-01-30T04:43:33;27.53;;;25.40;;
15905;SDS011;8051;50.820;4.884;2024-01-30T04:46:01;27.97;;;25.70;;
15905;SDS011;8051;50.820;4.884;2024-01-30T04:48:28;26.00;;;23.80;;
15905;SDS011;8051;50.820;4.884;2024-01-30T04:50:56;26.70;;;24.60;;
15905;SDS011;8051;50.820;4.884;2024-01-30T04:53:23;25.57;;;23.57;;
15905;SDS011;8051;50.820;4.884;2024-01-30T04:55:50;27.33;;;24.90;;
15905;SDS011;8051;50.820;4.884;2024-01-30T04:58:19;27.87;;;25.67;;
15905;SDS011;8051;50.820;4.884;2024-01-30T05:00:47;28.37;;;26.07;;
15905;SDS011;8051;50.820;4.884;2024-01-30T05:03:16;28.07;;;25.53;;
15905;SDS011;8051;50.820;4.884;2024-01-30T05:05:44;27.00;;;24.90;;
15905;SDS011;8051;50.820;4.884;2024-01-30T05:08:11;26.70;;;24.63;;
15905;SDS011;8051;50.820;4.884;2024-01-30T05:10:39;27.23;;;25.03;;
15905;SDS011;8051;50.820;4.884;2024-01-30T05:13:06;26.63;;;24.63;;
15905;SDS011;8051;50.820;4.884;2024-01-30T05:15:35;26.00;;;24.03;;
15905;SDS011;8051;50.820;4.884;2024-01-30T05:18:03;28.67;;;26.57;;
15905;SDS011;8051;50.820;4.884;2024-01-30T05:20:31;27.43;;;25.03;;
15905;SDS011;8051;50.820;4.884;2024-01-30T05:22:58;26.90;;;24.80;;
15905;SDS011;8051;50.820;4.884;2024-01-30T05:25:25;26.10;;;24.13;;
15905;SDS011;8051;50.820;4.884;2024-01-30T05:27:53;27.17;;;24.97;;
15905;SDS011;8051;50.820;4.884;2024-01-30T05:30:21;26.43;;;24.33;;
15905;SDS011;8051;50.820;4.884;2024-01-30T05:32:50;26.23;;;24.30;;
15905;SDS011;8051;50.820;4.884;2024-01-30T05:35:17;25.47;;;23.57;;
15905;SDS011;8051;50.820;4.884;2024-01-30T05:37:46;24.83;;;22.80;;
15905;SDS011;8051;50.820;4.884;2024-01-30T05:40:14;26.30;;;24.03;;
15905;SDS011;8051;50.820;4.884;2024-01-30T05:42:42;26.23;;;24.00;;
15905;SDS011;8051;50.820;4.884;2024-01-30T05:45:09;26.60;;;24.80;;
15905;SDS011;8051;50.820;4.884;2024-01-30T05:47:37;25.57;;;23.73;;
15905;SDS011;8051;50.820;4.884;2024-01-30T05:50:07;27.67;;;25.37;;
15905;SDS011;8051;50.820;4.884;2024-01-30T05:52:34;26.17;;;24.00;;
15905;SDS011;8051;50.820;4.884;2024-01-30T05:55:03;27.30;;;25.10;;
15905;SDS011;8051;50.820;4.884;2024-01-30T05:57:31;26.03;;;24.13;;
15905;SDS011;8051;50.820;4.884;2024-01-30T05:59:58;27.23;;;24.93;;
15905;SDS011;8051;50.820;4.884;2024-01-30T06:02:26;26.13;;;24.07;;
15905;SDS011;8051;50.820;4.884;2024-01-30T06:04:53;26.23;;;24.17;;
15905;SDS011;8051;50.820;4.884;2024-01-30T06:07:22;26.47;;;24.57;;
15905;SDS011;8051;50.820;4.884;2024-01-30T06:09:50;27.60;;;25.53;;
15905;SDS011;8051;50.820;4.884;2024-01-30T06:12:17;28.10;;;25.40;;
15905;SDS011;8051;50.820;4.884;2024-01-30T06:14:45;26.17;;;24.27;;
15905;SDS011;8051;50.820;4.884;2024-01-30T06:17:12;27.03;;;24.87;;
15905;SDS011;8051;50.820;4.884;2024-01-30T06:19:40;27.67;;;25.57;;
15905;SDS011;8051;50.820;4.884;2024-01-30T06:22:08;28.47;;;26.27;;
15905;SDS011;8051;50.820;4.884;2024-01-30T06:24:36;29.33;;;26.93;;
15905;SDS011;8051;50.820;4.884;2024-01-30T06:27:04;27.03;;;25.03;;
15905;SDS011;8051;50.820;4.884;2024-01-30T06:29:31;26.63;;;24.63;;
15905;SDS011;8051;50.820;4.884;2024-01-30T06:31:59;28.50;;;26.20;;
15905;SDS011;8051;50.820;4.884;2024-01-30T06:34:26;26.30;;;24.20;;
15905;SDS011;8051;50.820;4.884;2024-01-30T06:36:54;28.33;;;26.00;;
15905;SDS011;8051;50.820;4.884;2024-01-30T06:39:21;28.50;;;26.27;;
15905;SDS011;8051;50.820;4.884;2024-01-30T06:41:50;27.43;;;25.13;;
15905;SDS011;8051;50.820;4.884;2024-01-30T06:44:17;25.50;;;23.60;;
15905;SDS011;8051;50.820;4.884;2024-01-30T06:46:45;27.30;;;25.00;;
15905;SDS011;8051;50.820;4.884;2024-01-30T06:49:12;27.80;;;25.57;;
15905;SDS011;8051;50.820;4.884;2024-01-30T06:51:40;26.37;;;24.37;;
15905;SDS011;8051;50.820;4.884;2024-01-30T06:54:08;26.60;;;24.50;;
15905;SDS011;8051;50.820;4.884;2024-01-30T06:56:35;27.70;;;25.50;;
15905;SDS011;8051;50.820;4.884;2024-01-30T06:59:04;29.17;;;26.40;;
15905;SDS011;8051;50.820;4.884;2024-01-30T07:01:31;29.50;;;27.13;;
15905;SDS011;8051;50.820;4.884;2024-01-30T07:03:59;28.73;;;26.50;;
15905;SDS011;8051;50.820;4.884;2024-01-30T07:06:26;28.07;;;25.87;;
15905;SDS011;8051;50.820;4.884;2024-01-30T07:08:54;27.80;;;25.50;;
15905;SDS011;8051;50.820;4.884;2024-01-30T07:11:21;28.87;;;26.77;;
15905;SDS011;8051;50.820;4.884;2024-01-30T07:13:50;28.20;;;26.00;;
15905;SDS011;8051;50.820;4.884;2024-01-30T07:16:19;28.63;;;26.17;;
15905;SDS011;8051;50.820;4.884;2024-01-30T07:18:47;26.20;;;24.07;;
15905;SDS011;8051;50.820;4.884;2024-01-30T07:21:15;27.17;;;25.17;;
15905;SDS011;8051;50.820;4.884;2024-01-30T07:23:42;26.17;;;24.07;;
15905;SDS011;8051;50.820;4.884;2024-01-30T07:26:10;27.90;;;25.60;;
15905;SDS011;8051;50.820;4.884;2024-01-30T07:28:38;26.63;;;24.60;;
15905;SDS011;8051;50.820;4.884;2024-01-30T07:31:05;25.97;;;23.97;;
15905;SDS011;8051;50.820;4.884;2024-01-30T07:33:34;25.53;;;23.47;;
15905;SDS011;8051;50.820;4.884;2024-01-30T07:36:02;25.93;;;23.90;;
15905;SDS011;8051;50.820;4.884;2024-01-30T07:38:31;25.77;;;23.33;;
15905;SDS011;8051;50.820;4.884;2024-01-30T07:40:59;25.27;;;23.13;;
15905;SDS011;8051;50.820;4.884;2024-01-30T07:43:26;26.37;;;24.07;;
15905;SDS011;8051;50.820;4.884;2024-01-30T07:45:54;25.33;;;23.30;;
15905;SDS011;8051;50.820;4.884;2024-01-30T07:48:21;26.67;;;24.33;;
15905;SDS011;8051;50.820;4.884;2024-01-30T07:50:50;26.63;;;24.53;;
15905;SDS011;8051;50.820;4.884;2024-01-30T07:53:18;27.53;;;25.13;;
15905;SDS011;8051;50.820;4.884;2024-01-30T07:55:48;27.57;;;25.47;;
15905;SDS011;8051;50.820;4.884;2024-01-30T07:58:16;26.27;;;24.27;;
15905;SDS011;8051;50.820;4.884;2024-01-30T08:00:44;26.10;;;24.10;;
15905;SDS011;8051;50.820;4.884;2024-01-30T08:03:12;27.67;;;25.50;;
15905;SDS011;8051;50.820;4.884;2024-01-30T08:05:41;27.77;;;25.47;;
15905;SDS011;8051;50.820;4.884;2024-01-30T08:08:10;27.77;;;25.43;;
15905;SDS011;8051;50.820;4.884;2024-01-30T08:10:38;27.73;;;25.43;;
15905;SDS011;8051;50.820;4.884;2024-01-30T08:13:05;29.23;;;26.90;;
15905;SDS011;8051;50.820;4.884;2024-01-30T08:15:34;27.10;;;25.10;;
15905;SDS011;8051;50.820;4.884;2024-01-30T08:18:01;27.17;;;25.00;;
15905;SDS011;8051;50.820;4.884;2024-01-30T08:20:30;28.07;;;25.67;;
15905;SDS011;8051;50.820;4.884;2024-01-30T08:22:58;28.77;;;26.37;;
15905;SDS011;8051;50.820;4.884;2024-01-30T08:25:27;27.67;;;25.53;;
15905;SDS011;8051;50.820;4.884;2024-01-30T08:27:55;29.20;;;26.70;;
15905;SDS011;8051;50.820;4.884;2024-01-30T08:30:23;30.10;;;27.70;;
15905;SDS011;8051;50.820;4.884;2024-01-30T08:32:51;28.13;;;25.87;;
15905;SDS011;8051;50.820;4.884;2024-01-30T08:35:18;29.20;;;26.77;;
15905;SDS011;8051;50.820;4.884;2024-01-30T08:37:45;31.03;;;28.40;;
15905;SDS011;8051;50.820;4.884;2024-01-30T08:40:13;28.97;;;26.70;;
15905;SDS011;8051;50.820;4.884;2024-01-30T08:42:42;28.80;;;26.50;;
15905;SDS011;8051;50.820;4.884;2024-01-30T08:45:10;28.57;;;26.37;;
15905;SDS011;8051;50.820;4.884;2024-01-30T08:47:37;29.70;;;27.37;;
15905;SDS011;8051;50.820;4.884;2024-01-30T08:50:05;29.37;;;26.87;;
15905;SDS011;8051;50.820;4.884;2024-01-30T08:52:33;29.10;;;26.70;;
15905;SDS011;8051;50.820;4.884;2024-01-30T08:55:01;29.40;;;27.00;;
15905;SDS011;8051;50.820;4.884;2024-01-30T08:57:29;30.53;;;28.03;;
15905;SDS011;8051;50.820;4.884;2024-01-30T08:59:58;31.30;;;28.33;;
15905;SDS011;8051;50.820;4.884;2024-01-30T09:02:29;29.90;;;27.40;;
15905;SDS011;8051;50.820;4.884;2024-01-30T09:04:57;30.50;;;27.83;;
15905;SDS011;8051;50.820;4.884;2024-01-30T09:07:24;30.97;;;28.30;;
15905;SDS011;8051;50.820;4.884;2024-01-30T09:09:51;31.23;;;27.77;;
15905;SDS011;8051;50.820;4.884;2024-01-30T09:12:18;31.27;;;28.57;;
15905;SDS011;8051;50.820;4.884;2024-01-30T09:14:46;31.17;;;28.57;;
15905;SDS011;8051;50.820;4.884;2024-01-30T09:17:14;30.60;;;27.90;;
15905;SDS011;8051;50.820;4.884;2024-01-30T09:19:41;30.73;;;27.97;;
15905;SDS011;8051;50.820;4.884;2024-01-30T09:22:09;31.40;;;28.70;;
15905;SDS011;8051;50.820;4.884;2024-01-30T09:24:36;32.73;;;29.57;;
15905;SDS011;8051;50.820;4.884;2024-01-30T09:27:04;31.13;;;28.40;;
15905;SDS011;8051;50.820;4.884;2024-01-30T09:29:31;33.20;;;30.20;;
15905;SDS011;8051;50.820;4.884;2024-01-30T09:32:01;32.63;;;29.97;;
15905;SDS011;8051;50.820;4.884;2024-01-30T09:34:31;32.03;;;29.33;;
15905;SDS011;8051;50.820;4.884;2024-01-30T09:36:59;33.57;;;30.73;;
15905;SDS011;8051;50.820;4.884;2024-01-30T09:39:27;32.50;;;29.70;;
15905;SDS011;8051;50.820;4.884;2024-01-30T09:41:55;32.77;;;30.10;;
15905;SDS011;8051;50.820;4.884;2024-01-30T09:44:31;31.03;;;28.50;;
15905;SDS011;8051;50.820;4.884;2024-01-30T09:47:02;32.43;;;29.87;;
15905;SDS011;8051;50.820;4.884;2024-01-30T09:49:32;32.70;;;29.80;;
15905;SDS011;8051;50.820;4.884;2024-01-30T09:52:01;33.30;;;30.53;;
15905;SDS011;8051;50.820;4.884;2024-01-30T09:54:29;33.27;;;30.00;;
15905;SDS011;8051;50.820;4.884;2024-01-30T09:56:57;32.43;;;29.30;;
15905;SDS011;8051;50.820;4.884;2024-01-30T09:59:25;33.40;;;30.47;;
15905;SDS011;8051;50.820;4.884;2024-01-30T10:01:53;32.00;;;29.27;;
15905;SDS011;8051;50.820;4.884;2024-01-30T10:04:21;32.03;;;29.43;;
15905;SDS011;8051;50.820;4.884;2024-01-30T10:06:50;31.40;;;28.73;;
15905;SDS011;8051;50.820;4.884;2024-01-30T10:09:18;31.33;;;28.67;;
15905;SDS011;8051;50.820;4.884;2024-01-30T10:11:46;32.93;;;30.00;;
15905;SDS011;8051;50.820;4.884;2024-01-30T10:14:15;32.87;;;29.83;;
15905;SDS011;8051;50.820;4.884;2024-01-30T10:16:43;30.60;;;28.10;;
15905;SDS011;8051;50.820;4.884;2024-01-30T10:19:12;32.80;;;30.20;;
15905;SDS011;8051;50.820;4.884;2024-01-30T10:21:40;32.37;;;29.40;;
15905;SDS011;8051;50.820;4.884;2024-01-30T10:24:09;33.33;;;30.23;;
15905;SDS011;8051;50.820;4.884;2024-01-30T10:26:39;33.23;;;30.37;;
15905;SDS011;8051;50.820;4.884;2024-01-30T10:29:06;31.27;;;28.67;;
15905;SDS011;8051;50.820;4.884;2024-01-30T10:31:33;32.03;;;29.13;;
15905;SDS011;8051;50.820;4.884;2024-01-30T10:34:01;32.87;;;30.07;;
15905;SDS011;8051;50.820;4.884;2024-01-30T10:36:29;32.17;;;29.27;;
15905;SDS011;8051;50.820;4.884;2024-01-30T10:38:59;31.80;;;28.77;;
15905;SDS011;8051;50.820;4.884;2024-01-30T10:41:28;32.23;;;29.20;;
15905;SDS011;8051;50.820;4.884;2024-01-30T10:44:02;33.70;;;30.73;;
15905;SDS011;8051;50.820;4.884;2024-01-30T10:46:35;34.70;;;31.17;;
15905;SDS011;8051;50.820;4.884;2024-01-30T10:49:05;34.33;;;31.30;;
15905;SDS011;8051;50.820;4.884;2024-01-30T10:51:32;34.40;;;31.13;;
15905;SDS011;8051;50.820;4.884;2024-01-30T10:54:03;33.57;;;30.53;;
15905;SDS011;8051;50.820;4.884;2024-01-30T10:56:34;32.90;;;29.93;;
15905;SDS011;8051;50.820;4.884;2024-01-30T10:59:03;31.50;;;28.50;;
15905;SDS011;8051;50.820;4.884;2024-01-30T11:01:31;32.33;;;29.83;;
15905;SDS011;8051;50.820;4.884;2024-01-30T11:03:58;33.20;;;30.37;;
15905;SDS011;8051;50.820;4.884;2024-01-30T11:06:26;33.03;;;30.00;;
15905;SDS011;8051;50.820;4.884;2024-01-30T11:09:00;33.23;;;30.20;;
15905;SDS011;8051;50.820;4.884;2024-01-30T11:11:29;32.23;;;29.70;;
15905;SDS011;8051;50.820;4.884;2024-01-30T11:14:01;33.77;;;29.77;;
15905;SDS011;8051;50.820;4.884;2024-01-30T11:16:30;34.70;;;31.57;;
15905;SDS011;8051;50.820;4.884;2024-01-30T11:19:00;35.17;;;32.03;;
15905;SDS011;8051;50.820;4.884;2024-01-30T11:21:28;34.17;;;31.40;;
15905;SDS011;8051;50.820;4.884;2024-01-30T11:23:55;34.10;;;31.03;;
15905;SDS011;8051;50.820;4.884;2024-01-30T11:26:24;35.60;;;32.03;;
15905;SDS011;8051;50.820;4.884;2024-01-30T11:28:55;36.03;;;32.13;;
15905;SDS011;8051;50.820;4.884;2024-01-30T11:31:24;34.50;;;31.43;;
15905;SDS011;8051;50.820;4.884;2024-01-30T11:33:52;36.10;;;33.00;;
15905;SDS011;8051;50.820;4.884;2024-01-30T11:36:21;37.17;;;33.93;;
15905;SDS011;8051;50.820;4.884;2024-01-30T11:38:52;37.30;;;33.87;;
15905;SDS011;8051;50.820;4.884;2024-01-30T11:41:21;37.63;;;34.20;;
15905;SDS011;8051;50.820;4.884;2024-01-30T11:43:53;37.67;;;34.13;;
15905;SDS011;8051;50.820;4.884;2024-01-30T11:46:20;35.70;;;32.13;;
15905;SDS011;8051;50.820;4.884;2024-01-30T11:48:53;34.80;;;31.77;;
15905;SDS011;8051;50.820;4.884;2024-01-30T11:51:20;33.77;;;30.97;;
15905;SDS011;8051;50.820;4.884;2024-01-30T11:53:49;33.63;;;30.37;;
15905;SDS011;8051;50.820;4.884;2024-01-30T11:56:17;32.50;;;29.73;;
15905;SDS011;8051;50.820;4.884;2024-01-30T11:58:44;31.73;;;29.37;;
15905;SDS011;8051;50.820;4.884;2024-01-30T12:01:11;31.50;;;29.00;;
15905;SDS011;8051;50.820;4.884;2024-01-30T12:03:39;32.00;;;29.73;;
15905;SDS011;8051;50.820;4.884;2024-01-30T12:06:08;32.27;;;29.77;;
15905;SDS011;8051;50.820;4.884;2024-01-30T12:08:35;31.53;;;29.37;;
15905;SDS011;8051;50.820;4.884;2024-01-30T12:11:02;29.80;;;27.70;;
15905;SDS011;8051;50.820;4.884;2024-01-30T12:13:32;31.53;;;28.93;;
15905;SDS011;8051;50.820;4.884;2024-01-30T12:16:00;30.23;;;28.17;;
15905;SDS011;8051;50.820;4.884;2024-01-30T12:18:28;31.33;;;29.00;;
15905;SDS011;8051;50.820;4.884;2024-01-30T12:20:58;30.50;;;28.30;;
15905;SDS011;8051;50.820;4.884;2024-01-30T12:23:27;30.33;;;28.23;;
15905;SDS011;8051;50.820;4.884;2024-01-30T12:25:55;30.90;;;28.90;;
15905;SDS011;8051;50.820;4.884;2024-01-30T12:28:24;31.67;;;29.47;;
15905;SDS011;8051;50.820;4.884;2024-01-30T12:30:54;29.40;;;27.20;;
15905;SDS011;8051;50.820;4.884;2024-01-30T12:33:24;28.07;;;26.37;;
15905;SDS011;8051;50.820;4.884;2024-01-30T12:35:53;27.73;;;26.03;;
15905;SDS011;8051;50.820;4.884;2024-01-30T12:38:20;28.10;;;26.20;;
15905;SDS011;8051;50.820;4.884;2024-01-30T12:40:52;26.80;;;24.90;;
15905;SDS011;8051;50.820;4.884;2024-01-30T12:43:21;27.50;;;25.80;;
15905;SDS011;8051;50.820;4.884;2024-01-30T12:45:49;28.17;;;26.47;;
15905;SDS011;8051;50.820;4.884;2024-01-30T12:48:17;28.80;;;27.10;;
15905;SDS011;8051;50.820;4.884;2024-01-30T12:50:44;28.30;;;26.70;;
15905;SDS011;8051;50.820;4.884;2024-01-30T12:53:12;27.97;;;26.33;;
15905;SDS011;8051;50.820;4.884;2024-01-30T12:55:39;28.40;;;26.63;;
15905;SDS011;8051;50.820;4.884;2024-01-30T12:58:08;29.50;;;27.80;;
15905;SDS011;8051;50.820;4.884;2024-01-30T13:00:35;29.20;;;27.50;;
15905;SDS011;8051;50.820;4.884;2024-01-30T13:03:03;27.93;;;26.13;;
15905;SDS011;8051;50.820;4.884;2024-01-30T13:05:31;27.07;;;25.30;;
15905;SDS011;8051;50.820;4.884;2024-01-30T13:07:58;27.07;;;25.23;;
15905;SDS011;8051;50.820;4.884;2024-01-30T13:10:26;26.40;;;24.90;;
15905;SDS011;8051;50.820;4.884;2024-01-30T13:12:53;26.10;;;24.60;;
15905;SDS011;8051;50.820;4.884;2024-01-30T13:15:22;26.30;;;24.90;;
15905;SDS011;8051;50.820;4.884;2024-01-30T13:17:50;26.97;;;25.47;;
15905;SDS011;8051;50.820;4.884;2024-01-30T13:20:19;25.80;;;24.23;;
15905;SDS011;8051;50.820;4.884;2024-01-30T13:22:47;24.53;;;23.23;;
15905;SDS011;8051;50.820;4.884;2024-01-30T13:25:15;24.70;;;23.40;;
15905;SDS011;8051;50.820;4.884;2024-01-30T13:27:43;25.70;;;24.30;;
15905;SDS011;8051;50.820;4.884;2024-01-30T13:30:11;22.60;;;21.40;;
15905;SDS011;8051;50.820;4.884;2024-01-30T13:32:40;23.83;;;22.43;;
15905;SDS011;8051;50.820;4.884;2024-01-30T13:35:09;24.50;;;23.10;;
15905;SDS011;8051;50.820;4.884;2024-01-30T13:37:37;24.07;;;22.77;;
15905;SDS011;8051;50.820;4.884;2024-01-30T13:40:05;24.30;;;22.77;;
15905;SDS011;8051;50.820;4.884;2024-01-30T13:42:34;25.03;;;23.63;;
15905;SDS011;8051;50.820;4.884;2024-01-30T13:45:01;26.90;;;25.10;;
15905;SDS011;8051;50.820;4.884;2024-01-30T13:47:29;26.50;;;24.60;;
15905;SDS011;8051;50.820;4.884;2024-01-30T13:49:58;28.03;;;26.33;;
15905;SDS011;8051;50.820;4.884;2024-01-30T13:52:25;27.03;;;25.23;;
15905;SDS011;8051;50.820;4.884;2024-01-30T13:54:53;26.40;;;24.67;;
15905;SDS011;8051;50.820;4.884;2024-01-30T13:57:21;26.40;;;24.90;;
15905;SDS011;8051;50.820;4.884;2024-01-30T13:59:48;24.10;;;22.80;;
15905;SDS011;8051;50.820;4.884;2024-01-30T14:02:16;23.87;;;22.07;;
15905;SDS011;8051;50.820;4.884;2024-01-30T14:04:43;25.60;;;24.10;;
15905;SDS011;8051;50.820;4.884;2024-01-30T14:07:12;22.30;;;21.20;;
15905;SDS011;8051;50.820;4.884;2024-01-30T14:09:40;24.17;;;22.97;;
15905;SDS011;8051;50.820;4.884;2024-01-30T14:12:07;24.87;;;23.53;;
15905;SDS011;8051;50.820;4.884;2024-01-30T14:14:35;26.17;;;24.40;;
15905;SDS011;8051;50.820;4.884;2024-01-30T14:17:02;25.37;;;23.67;;
15905;SDS011;8051;50.820;4.884;2024-01-30T14:19:32;23.90;;;22.30;;
15905;SDS011;8051;50.820;4.884;2024-01-30T14:21:59;25.10;;;23.10;;
15905;SDS011;8051;50.820;4.884;2024-01-30T14:24:28;24.57;;;23.17;;
15905;SDS011;8051;50.820;4.884;2024-01-30T14:26:56;24.93;;;23.43;;
15905;SDS011;8051;50.820;4.884;2024-01-30T14:29:24;22.23;;;21.10;;
15905;SDS011;8051;50.820;4.884;2024-01-30T14:31:52;23.83;;;22.33;;
15905;SDS011;8051;50.820;4.884;2024-01-30T14:34:20;25.37;;;23.83;;
15905;SDS011;8051;50.820;4.884;2024-01-30T14:36:47;25.07;;;23.57;;
15905;SDS011;8051;50.820;4.884;2024-01-30T14:39:14;24.83;;;23.33;;